Time;durP1;ratioP1;P1;durP2;ratioP2;P2;SDS_P1;SDS_P2;PMS_P1;PMS_P2;Temp;Humidity;BMP_temperature;BMP_pressure;BME280_temperature;BME280_humidity;BME280_pressure;Samples;Min_cycle;Max_cycle;Signal;HPM_P1;HPM_P2
2022/04/20 00:00:35;;;;;;;4.10;2.35;;;;;;;10.25;50.02;98039.28;4986729;28;20105;-85
2022/04/20 00:03:02;;;;;;;4.10;1.83;;;;;;;10.20;49.46;98032.44;4986866;28;20344;-85
2022/04/20 00:05:28;;;;;;;3.55;1.92;;;;;;;10.06;50.19;98029.31;4987945;28;20073;-85
2022/04/20 00:07:56;;;;;;;3.75;1.65;;;;;;;10.06;50.45;98031.94;4986808;28;20026;-85
2022/04/20 00:10:22;;;;;;;3.08;1.60;;;;;;;9.95;51.07;98023.44;4986773;28;20222;-85
2022/04/20 00:12:47;;;;;;;5.30;1.90;;;;;;;9.78;51.71;98012.53;4986697;28;20026;-85
2022/04/20 00:15:12;;;;;;;3.55;2.22;;;;;;;9.89;51.15;98018.34;4986419;28;20029;-85
2022/04/20 00:17:38;;;;;;;3.70;1.92;;;;;;;9.97;50.08;98026.91;4986460;28;20031;-85
2022/04/20 00:20:04;;;;;;;3.83;2.30;;;;;;;9.83;50.56;98013.25;4987611;28;20094;-85
2022/04/20 00:22:29;;;;;;;3.58;2.03;;;;;;;9.99;50.24;98025.09;4986445;28;20023;-85
2022/04/20 00:24:55;;;;;;;4.68;1.92;;;;;;;9.81;51.06;98022.97;4986343;28;20045;-85
2022/04/20 00:27:20;;;;;;;5.57;2.00;;;;;;;9.77;50.80;98018.66;4986469;28;20037;-85
2022/04/20 00:29:46;;;;;;;8.52;1.70;;;;;;;9.68;51.09;98024.19;4987500;28;20329;-85
2022/04/20 00:32:11;;;;;;;4.10;1.80;;;;;;;9.64;51.26;98022.50;4986371;28;20326;-85
2022/04/20 00:34:37;;;;;;;2.95;1.92;;;;;;;9.72;50.76;98021.44;4986301;28;20022;-85
2022/04/20 00:37:02;;;;;;;2.38;1.50;;;;;;;9.66;50.73;98025.97;4987468;28;20062;-85
2022/04/20 00:39:28;;;;;;;3.42;2.10;;;;;;;9.48;51.26;98026.41;4986393;28;20027;-85
2022/04/20 00:41:53;;;;;;;5.13;1.75;;;;;;;9.52;51.02;98033.34;4986175;28;20029;-85
2022/04/20 00:44:19;;;;;;;2.97;2.15;;;;;;;9.47;51.03;98035.22;4986017;28;20094;-85
2022/04/20 00:46:47;;;;;;;6.65;1.90;;;;;;;9.33;52.09;98021.56;4987215;28;20394;-85
2022/04/20 00:49:14;;;;;;;3.60;1.85;;;;;;;9.29;51.35;98025.13;4986026;28;20022;-85
2022/04/20 00:51:53;;;;;;;3.20;1.85;;;;;;;9.21;51.48;98022.69;4985971;28;20065;-85
2022/04/20 00:54:19;;;;;;;4.28;2.08;;;;;;;9.22;51.30;98019.19;4985922;28;20378;-85
2022/04/20 00:56:44;;;;;;;4.70;2.25;;;;;;;9.18;51.43;98021.91;4987050;28;20037;-85
2022/04/20 00:59:11;;;;;;;7.90;2.22;;;;;;;9.10;51.82;98019.47;4985791;28;20416;-85
2022/04/20 01:01:36;;;;;;;6.60;2.08;;;;;;;8.97;52.38;98025.91;4985963;28;20026;-85
2022/04/20 01:04:01;;;;;;;3.60;2.00;;;;;;;8.94;52.60;98027.72;4985810;28;20070;-85
2022/04/20 01:06:27;;;;;;;2.78;1.77;;;;;;;8.90;52.39;98031.31;4984989;28;20030;-85
2022/04/20 01:08:52;;;;;;;7.07;2.38;;;;;;;8.89;52.57;98026.97;4985538;28;20037;-85
2022/04/20 01:11:18;;;;;;;4.60;2.20;;;;;;;8.90;52.43;98031.31;4985667;28;20330;-85
2022/04/20 01:13:43;;;;;;;8.02;2.50;;;;;;;8.80;52.54;98031.53;4985611;28;20023;-85
2022/04/20 01:16:09;;;;;;;3.45;1.58;;;;;;;8.67;53.30;98024.81;4985484;28;20098;-85
2022/04/20 01:18:41;;;;;;;3.33;1.83;;;;;;;8.73;52.64;98023.81;4985489;28;20042;-85
2022/04/20 01:21:07;;;;;;;5.22;2.65;;;;;;;8.61;53.62;98019.69;4985166;28;20030;-85
2022/04/20 01:23:32;;;;;;;4.28;1.80;;;;;;;8.77;52.67;98021.09;4985372;28;20385;-85
2022/04/20 01:25:57;;;;;;;8.55;2.47;;;;;;;8.67;52.78;98024.81;4985246;28;20110;-85
2022/04/20 01:28:23;;;;;;;7.90;2.42;;;;;;;8.58;53.32;98026.78;4986214;28;20046;-85
2022/04/20 01:30:49;;;;;;;4.45;2.13;;;;;;;8.55;52.72;98025.06;4985292;28;20270;-85
2022/04/20 01:33:14;;;;;;;6.45;2.92;;;;;;;8.47;53.42;98024.38;4985212;28;20023;-85
2022/04/20 01:35:39;;;;;;;4.03;1.77;;;;;;;8.17;55.64;98022.31;4985195;28;20126;-85
2022/04/20 01:38:05;;;;;;;7.43;2.63;;;;;;;8.30;54.14;98029.13;4985129;28;20030;-85
2022/04/20 01:40:31;;;;;;;10.20;2.63;;;;;;;8.19;54.99;98025.78;4984988;28;20030;-85
2022/04/20 01:42:57;;;;;;;6.07;2.03;;;;;;;8.11;55.97;98022.47;4985072;28;20019;-85
2022/04/20 01:45:22;;;;;;;4.25;2.33;;;;;;;8.01;56.43;98014.81;4984976;28;20033;-85
2022/04/20 01:47:47;;;;;;;2.95;1.88;;;;;;;7.81;57.45;98001.19;4984943;28;20102;-85
2022/04/20 01:50:13;;;;;;;8.75;1.90;;;;;;;7.78;57.07;98006.53;4984676;28;20019;-85
2022/04/20 01:52:38;;;;;;;5.25;2.20;;;;;;;7.66;56.96;98010.19;4984656;28;20222;-85
2022/04/20 01:55:04;;;;;;;4.57;1.88;;;;;;;7.67;56.48;98008.44;4984669;28;20105;-85
2022/04/20 01:57:30;;;;;;;4.43;2.20;;;;;;;7.57;58.07;98012.13;4984768;28;20022;-85
2022/04/20 01:59:55;;;;;;;5.30;2.05;;;;;;;7.37;59.89;98009.00;4984670;28;20034;-85
2022/04/20 02:02:38;;;;;;;3.78;2.03;;;;;;;7.21;61.08;98007.53;4985774;28;20050;-85
2022/04/20 02:05:07;;;;;;;;;;;;;;;7.19;60.47;98012.78;4986210;28;20334;-85
2022/04/20 02:07:33;;;;;;;12.35;2.30;;;;;;;7.05;61.55;98006.88;4984467;28;19917;-85
2022/04/20 02:09:59;;;;;;;4.38;2.30;;;;;;;6.98;61.94;98000.03;4985704;28;20022;-85
2022/04/20 02:12:24;;;;;;;4.03;2.22;;;;;;;7.07;60.87;97999.00;4985640;28;20033;-85
2022/04/20 02:14:50;;;;;;;5.63;2.45;;;;;;;6.97;61.55;97993.06;4984529;28;20211;-85
2022/04/20 02:17:16;;;;;;;5.80;2.45;;;;;;;6.84;62.59;97991.53;4984693;28;20022;-85
2022/04/20 02:19:42;;;;;;;2.88;1.88;;;;;;;6.79;61.90;97998.56;4984344;28;20022;-85
2022/04/20 02:22:07;;;;;;;3.55;2.00;;;;;;;6.95;59.69;98004.41;4984321;28;20073;-85
2022/04/20 02:24:33;;;;;;;3.90;1.80;;;;;;;6.90;61.14;98012.38;4984231;28;20089;-85
2022/04/20 02:26:58;;;;;;;6.18;2.53;;;;;;;6.84;60.84;98007.22;4984133;28;20029;-85
2022/04/20 02:29:24;;;;;;;4.80;2.20;;;;;;;6.82;60.83;97998.53;4984277;28;20321;-85
2022/04/20 02:31:49;;;;;;;5.38;2.55;;;;;;;6.94;60.33;98011.44;4984267;28;20093;-85
2022/04/20 02:34:14;;;;;;;4.07;2.13;;;;;;;7.22;58.63;98009.25;5000395;28;20019;-85
2022/04/20 02:36:40;;;;;;;8.70;2.13;;;;;;;7.09;59.64;98011.16;4984206;28;20030;-85
2022/04/20 02:39:06;;;;;;;5.85;2.78;;;;;;;7.07;59.81;98006.84;4985319;28;20033;-85
2022/04/20 02:41:35;;;;;;;5.68;2.25;;;;;;;6.94;60.58;98008.81;4984071;28;20023;-85
2022/04/20 02:44:00;;;;;;;4.63;2.42;;;;;;;6.66;63.07;98007.47;5000295;28;20023;-85
2022/04/20 02:46:26;;;;;;;5.05;2.53;;;;;;;6.74;61.45;98005.59;4985173;28;20031;-85
2022/04/20 02:48:52;;;;;;;3.80;2.13;;;;;;;6.53;63.56;98000.69;4984058;28;20191;-85
2022/04/20 02:51:17;;;;;;;6.00;2.55;;;;;;;6.56;62.91;97998.88;5000201;28;20279;-85
2022/04/20 02:53:42;;;;;;;6.90;2.80;;;;;;;6.48;63.42;98002.47;4985109;28;20030;-85
2022/04/20 02:56:08;;;;;;;5.00;2.25;;;;;;;6.40;64.36;98004.34;4983762;28;20031;-85
2022/04/20 02:58:33;;;;;;;7.38;2.70;;;;;;;6.42;63.06;98007.78;4983957;28;20022;-85
2022/04/20 03:00:59;;;;;;;3.90;2.25;;;;;;;6.25;65.38;97999.31;4985101;28;20027;-85
2022/04/20 03:03:24;;;;;;;6.55;2.17;;;;;;;6.12;65.98;98003.84;4983876;28;20026;-85
2022/04/20 03:05:51;;;;;;;6.03;3.00;;;;;;;5.96;67.14;97999.66;4984946;28;20341;-85
2022/04/20 03:08:17;;;;;;;4.07;2.03;;;;;;;5.88;67.49;98008.44;4984996;28;20254;-85
2022/04/20 03:10:42;;;;;;;4.50;2.20;;;;;;;5.62;68.91;98000.88;4984946;28;20026;-85
2022/04/20 03:13:08;;;;;;;4.35;2.03;;;;;;;5.67;68.74;98000.81;4984941;28;20027;-85
2022/04/20 03:15:33;;;;;;;5.32;2.50;;;;;;;5.41;69.83;98010.66;4983748;28;20023;-85
2022/04/20 03:17:58;;;;;;;10.15;2.25;;;;;;;5.27;70.87;98008.16;4983775;28;20042;-85
2022/04/20 03:20:24;;;;;;;9.75;2.28;;;;;;;5.08;71.67;98010.91;4983703;28;20030;-85
2022/04/20 03:22:50;;;;;;;4.72;2.60;;;;;;;5.12;71.98;98012.66;4984826;28;20311;-85
2022/04/20 03:25:15;;;;;;;11.48;2.65;;;;;;;5.03;72.86;98017.94;4984542;28;20046;-85
2022/04/20 03:27:41;;;;;;;3.22;1.92;;;;;;;5.07;72.04;98022.25;4999885;28;20342;-85
2022/04/20 03:30:07;;;;;;;12.45;2.92;;;;;;;4.95;72.79;98019.72;5003094;28;20018;-85
2022/04/20 03:32:33;;;;;;;5.63;2.00;;;;;;;4.83;73.13;98011.97;4987381;28;20033;-85
2022/04/20 03:35:00;;;;;;;5.15;2.40;;;;;;;4.72;74.43;98011.19;4988406;28;20019;-85
2022/04/20 03:37:25;;;;;;;7.18;2.13;;;;;;;4.66;74.44;98011.22;4987219;28;20038;-85
2022/04/20 03:39:51;;;;;;;4.05;2.13;;;;;;;4.53;74.67;98010.44;5003513;28;20241;-85
2022/04/20 03:42:17;;;;;;;5.10;2.33;;;;;;;4.47;75.73;98011.31;4987293;28;20090;-85
2022/04/20 03:44:42;;;;;;;3.60;2.30;;;;;;;4.31;76.33;98004.44;4987208;28;20022;-85
2022/04/20 03:47:08;;;;;;;5.38;2.33;;;;;;;4.20;77.22;98001.06;4987184;28;20098;-85
2022/04/20 03:49:34;;;;;;;4.88;2.78;;;;;;;4.22;77.24;98008.84;4987173;28;20314;-85
2022/04/20 03:52:01;;;;;;;5.53;2.47;;;;;;;4.24;77.06;98007.97;4988302;28;20022;-85
2022/04/20 03:54:27;;;;;;;15.55;3.40;;;;;;;4.07;77.41;97999.38;4987094;28;20023;-85
2022/04/20 03:57:04;;;;;;;5.13;1.83;;;;;;;4.13;77.68;98001.97;5003243;28;20070;-85
2022/04/20 03:59:35;;;;;;;3.10;2.03;;;;;;;4.14;77.35;98001.06;4986885;28;20027;-85
2022/04/20 04:02:01;;;;;;;4.22;2.55;;;;;;;4.17;77.64;98016.69;4986628;28;20333;-85
2022/04/20 04:04:27;;;;;;;5.15;3.00;;;;;;;4.00;78.18;98013.28;4986937;28;20019;-85
2022/04/20 04:06:53;;;;;;;8.82;2.75;;;;;;;4.01;77.77;98009.81;4986700;28;20026;-85
2022/04/20 04:09:19;;;;;;;5.63;2.83;;;;;;;3.93;77.41;98015.91;4986810;28;20026;-85
2022/04/20 04:11:45;;;;;;;6.45;3.30;;;;;;;3.83;78.34;98016.81;4986796;28;20029;-85
2022/04/20 04:14:10;;;;;;;5.07;2.65;;;;;;;3.73;79.30;98017.69;5002980;28;20029;-85
2022/04/20 04:16:39;;;;;;;4.10;2.22;;;;;;;3.78;79.07;98018.56;4986721;28;20042;-86
2022/04/20 04:19:07;;;;;;;4.97;2.90;;;;;;;3.87;79.35;98016.81;4986589;28;20102;-84
2022/04/20 04:21:36;;;;;;;4.28;2.22;;;;;;;3.93;79.16;98015.91;4987577;28;20389;-85
2022/04/20 04:24:03;;;;;;;5.53;2.70;;;;;;;4.03;78.94;98021.09;4987416;28;20046;-85
2022/04/20 04:26:30;;;;;;;3.53;2.17;;;;;;;4.09;79.17;98018.44;4986154;28;20043;-85
2022/04/20 04:28:56;;;;;;;4.30;2.53;;;;;;;4.07;78.38;98022.81;4987582;28;20022;-85
2022/04/20 04:31:21;;;;;;;10.77;2.72;;;;;;;3.83;78.60;98015.06;4986463;28;20352;-85
2022/04/20 04:33:47;;;;;;;6.15;2.60;;;;;;;3.68;78.91;98017.72;4986147;28;20058;-86
2022/04/20 04:36:12;;;;;;;5.07;2.50;;;;;;;3.71;80.84;98025.53;4985689;28;20098;-85
2022/04/20 04:38:37;;;;;;;4.93;2.22;;;;;;;3.79;80.66;98028.97;4987074;28;20034;-85
2022/04/20 04:41:03;;;;;;;3.35;2.15;;;;;;;3.94;79.17;98023.72;4986270;28;20037;-85
2022/04/20 04:43:29;;;;;;;5.18;2.28;;;;;;;3.84;79.56;98024.63;4986161;28;20385;-85
2022/04/20 04:48:39;;;;;;;2.75;1.58;;;;;;;4.00;79.21;98023.72;4987251;28;20341;-85
2022/04/20 04:51:06;;;;;;;2.40;1.58;;;;;;;4.02;79.32;98026.31;4986084;28;20324;-85
2022/04/20 04:53:32;;;;;;;4.55;2.45;;;;;;;3.84;79.92;98027.22;4987157;28;20218;-85
2022/04/20 04:55:57;;;;;;;7.15;2.47;;;;;;;4.13;79.46;98035.81;4985982;28;20026;-85
2022/04/20 04:58:23;;;;;;;5.65;2.00;;;;;;;3.94;79.78;98028.94;4985879;28;20022;-85
2022/04/20 05:00:49;;;;;;;5.05;2.33;;;;;;;4.23;79.12;98037.50;5002049;28;20053;-85
2022/04/20 05:03:16;;;;;;;4.50;2.28;;;;;;;4.32;78.55;98041.81;4986949;28;20030;-85
2022/04/20 05:05:44;;;;;;;4.70;2.20;;;;;;;4.52;78.33;98044.31;4985787;28;20314;-85
2022/04/20 05:08:10;;;;;;;4.78;2.65;;;;;;;4.75;77.78;98050.28;4985763;28;20341;-85
2022/04/20 05:10:36;;;;;;;3.40;2.13;;;;;;;5.17;76.71;98057.81;4986798;28;20019;-85
2022/04/20 05:13:06;;;;;;;2.70;1.52;;;;;;;5.82;74.44;98055.53;4986805;28;20054;-85
2022/04/20 05:15:32;;;;;;;4.68;2.95;;;;;;;6.36;72.27;98061.00;4985618;28;20065;-85
2022/04/20 05:17:57;;;;;;;6.13;2.22;;;;;;;7.20;70.55;98074.69;4985551;28;20034;-85
2022/04/20 05:20:23;;;;;;;10.25;2.85;;;;;;;7.52;68.32;98077.66;4985367;28;20031;-85
2022/04/20 05:22:49;;;;;;;4.47;2.75;;;;;;;8.13;66.73;98070.47;4985421;28;20050;-85
2022/04/20 05:25:15;;;;;;;6.82;2.75;;;;;;;8.56;65.11;98091.50;4985280;28;20269;-85
2022/04/20 05:27:40;;;;;;;5.10;2.28;;;;;;;8.82;64.71;98088.38;4985392;28;20019;-85
2022/04/20 05:30:08;;;;;;;3.63;2.13;;;;;;;9.34;63.60;98091.56;4986512;28;20069;-85
2022/04/20 05:32:33;;;;;;;4.68;2.10;;;;;;;9.77;62.64;98097.50;4985242;28;20310;-85
2022/04/20 05:35:00;;;;;;;5.78;2.58;;;;;;;10.17;60.74;98099.13;4985202;28;20109;-85
2022/04/20 05:42:54;;;;;;;5.13;2.60;;;;;;;11.17;54.49;98112.94;4986245;28;20033;-85
2022/04/20 05:45:19;;;;;;;9.60;3.40;;;;;;;11.59;53.68;98114.28;5001262;28;20023;-85
2022/04/20 05:47:46;;;;;;;6.20;3.33;;;;;;;12.06;51.76;98107.47;4986112;28;20086;-85
2022/04/20 05:50:11;;;;;;;5.85;2.83;;;;;;;12.56;50.54;98119.81;4984932;28;20018;-85
2022/04/20 05:52:37;;;;;;;6.22;2.63;;;;;;;13.06;48.47;98120.66;4984676;28;20065;-85
2022/04/20 05:55:04;;;;;;;7.65;3.15;;;;;;;13.11;46.15;98108.97;4984924;28;20028;-86
2022/04/20 05:57:29;;;;;;;6.32;3.00;;;;;;;13.34;46.44;98114.25;4986001;28;20027;-86
2022/04/20 05:59:55;;;;;;;5.88;2.35;;;;;;;13.33;45.76;98109.00;4984715;28;20027;-86
2022/04/20 06:02:20;;;;;;;5.10;2.85;;;;;;;13.70;45.67;98114.59;4984742;28;20030;-86
2022/04/20 06:04:46;;;;;;;5.35;2.40;;;;;;;13.57;44.85;98111.56;4984988;28;20033;-86
2022/04/20 06:07:12;;;;;;;4.25;2.88;;;;;;;13.45;44.52;98097.97;4984667;28;20022;-86
2022/04/20 06:09:38;;;;;;;5.22;3.10;;;;;;;12.94;45.91;98101.63;4985789;28;20045;-86
2022/04/20 06:12:04;;;;;;;7.35;2.83;;;;;;;12.53;45.52;98089.06;5000859;28;20093;-86
2022/04/20 06:14:29;;;;;;;5.00;2.80;;;;;;;12.35;46.91;98084.47;4984545;28;20019;-86
2022/04/20 06:16:55;;;;;;;8.15;2.70;;;;;;;12.44;46.44;98094.69;4984523;28;20322;-86
2022/04/20 06:19:20;;;;;;;7.63;2.95;;;;;;;12.25;46.90;98088.31;4985462;28;20034;-86
2022/04/20 06:21:45;;;;;;;8.00;2.75;;;;;;;11.61;47.33;98083.44;4984344;28;20077;-85
2022/04/20 06:24:11;;;;;;;5.07;2.95;;;;;;;11.40;48.22;98070.09;4984315;28;20019;-85
2022/04/20 06:26:37;;;;;;;7.53;2.70;;;;;;;11.50;47.92;98085.56;4984369;28;20050;-85
2022/04/20 06:29:02;;;;;;;6.57;2.13;;;;;;;11.67;48.19;98088.53;4985452;28;20378;-85
2022/04/20 06:31:28;;;;;;;6.43;2.25;;;;;;;11.81;47.78;98091.63;4984239;28;20057;-85
2022/04/20 06:33:58;;;;;;;5.20;2.38;;;;;;;11.77;47.16;98079.41;4985358;28;20033;-85
2022/04/20 06:36:26;;;;;;;4.57;2.72;;;;;;;12.07;47.01;98088.09;4985391;28;20026;-85
2022/04/20 06:38:52;;;;;;;3.55;2.28;;;;;;;11.99;46.61;98079.59;4984216;28;20068;-85
2022/04/20 06:41:18;;;;;;;7.22;2.67;;;;;;;12.07;46.25;98082.81;5000328;28;20023;-85
2022/04/20 06:43:44;;;;;;;5.70;2.50;;;;;;;12.23;46.80;98092.81;4984163;28;20022;-85
2022/04/20 06:46:09;;;;;;;5.60;2.63;;;;;;;12.08;45.73;98085.41;4984001;28;20023;-85
2022/04/20 06:48:35;;;;;;;4.88;2.55;;;;;;;12.20;46.53;98095.53;4984338;28;20037;-85
2022/04/20 06:51:01;;;;;;;3.45;2.10;;;;;;;12.73;45.73;98104.22;4984035;28;20026;-85
2022/04/20 06:58:55;;;;;;;4.25;2.10;;;;;;;13.23;42.75;98102.38;4985087;28;20333;-85
2022/04/20 07:01:20;;;;;;;5.25;2.60;;;;;;;13.47;42.82;98104.91;4983810;28;20034;-85
2022/04/20 07:03:45;;;;;;;5.07;2.00;;;;;;;14.00;42.40;98108.06;4987010;28;20030;-85
2022/04/20 07:06:11;;;;;;;4.30;2.60;;;;;;;14.59;41.38;98109.06;4991511;28;20022;-85
2022/04/20 07:08:37;;;;;;;3.30;2.03;;;;;;;14.61;40.91;98107.19;4990313;28;20375;-85
2022/04/20 07:11:03;;;;;;;9.35;2.60;;;;;;;15.00;39.67;98110.75;4990338;28;20018;-85
2022/04/20 07:13:29;;;;;;;10.35;3.15;;;;;;;14.58;39.49;98099.38;4991456;28;20030;-85
2022/04/20 07:15:55;;;;;;;2.97;1.80;;;;;;;14.42;40.13;98111.56;4990252;28;20031;-85
2022/04/20 07:18:20;;;;;;;2.55;1.90;;;;;;;14.32;38.67;98107.59;4990222;28;20094;-85
2022/04/20 07:20:46;;;;;;;4.70;2.10;;;;;;;14.34;38.49;98098.66;4990115;28;20030;-85
2022/04/20 07:23:12;;;;;;;3.38;1.90;;;;;;;14.22;38.81;98098.28;4990158;28;20034;-85
2022/04/20 07:25:38;;;;;;;7.50;2.38;;;;;;;14.02;38.66;98092.97;4991319;28;20369;-85
2022/04/20 07:28:05;;;;;;;5.55;2.60;;;;;;;14.35;39.25;98104.81;4990151;28;20026;-85
2022/04/20 07:30:30;;;;;;;8.27;3.10;;;;;;;14.52;38.29;98104.94;4990142;28;20300;-85
2022/04/20 07:32:56;;;;;;;4.00;2.30;;;;;;;14.17;38.44;98100.25;4990074;28;20061;-85
2022/04/20 07:35:21;;;;;;;4.82;2.40;;;;;;;14.29;38.10;98111.25;4990098;28;20053;-85
2022/04/20 07:37:47;;;;;;;4.32;2.10;;;;;;;14.01;37.89;98089.47;4990065;28;20019;-85
2022/04/20 07:40:14;;;;;;;3.35;2.22;;;;;;;14.83;37.42;98113.28;4989951;28;20026;-85
2022/04/20 07:42:39;;;;;;;4.80;2.58;;;;;;;14.40;37.27;98103.69;4991174;28;20077;-85
2022/04/20 07:45:05;;;;;;;4.60;2.25;;;;;;;14.42;37.80;98100.97;4989945;28;20322;-85
2022/04/20 07:47:31;;;;;;;3.78;2.30;;;;;;;14.53;37.59;98099.59;4991033;28;20034;-85
2022/04/20 07:52:46;;;;;;;8.40;2.35;;;;;;;14.57;36.65;98108.25;4991167;28;20033;-85
2022/04/20 07:55:14;;;;;;;3.88;2.28;;;;;;;13.88;36.71;98103.25;4991395;28;20257;-85
2022/04/20 07:57:42;;;;;;;7.47;2.42;;;;;;;13.62;37.25;98122.81;4991030;28;20042;-85
2022/04/20 08:00:09;;;;;;;4.15;2.10;;;;;;;13.83;36.65;98100.78;4989786;28;20027;-85
2022/04/20 08:02:34;;;;;;;3.90;2.30;;;;;;;13.94;36.89;98087.13;4989907;28;20022;-85
2022/04/20 08:05:00;;;;;;;10.60;2.42;;;;;;;14.23;36.17;98121.22;4989869;28;20246;-85
2022/04/20 08:07:26;;;;;;;3.92;2.20;;;;;;;14.12;35.52;98128.72;4989812;28;20027;-85
2022/04/20 08:09:52;;;;;;;4.82;2.13;;;;;;;14.26;36.29;98102.56;5006069;28;20026;-85
2022/04/20 08:12:17;;;;;;;4.07;2.38;;;;;;;14.03;36.78;98121.16;4989738;28;20089;-85
2022/04/20 08:14:43;;;;;;;14.30;2.40;;;;;;;13.72;36.43;98097.72;4988807;28;20222;-85
2022/04/20 08:17:08;;;;;;;8.65;2.78;;;;;;;13.43;37.16;98110.38;4986749;28;20282;-85
2022/04/20 08:19:34;;;;;;;5.38;2.67;;;;;;;13.55;37.56;98116.06;4987715;28;20031;-85
2022/04/20 08:21:59;;;;;;;12.30;3.47;;;;;;;13.75;36.78;98104.69;4987663;28;20066;-85
2022/04/20 08:24:25;;;;;;;9.45;2.78;;;;;;;14.22;36.74;98120.34;4986426;28;20023;-85
2022/04/20 08:26:50;;;;;;;5.65;2.17;;;;;;;14.72;36.08;98112.91;4986497;28;20029;-85
2022/04/20 08:29:16;;;;;;;8.55;2.28;;;;;;;14.50;36.21;98109.47;4987581;28;20027;-85
2022/04/20 08:31:41;;;;;;;4.82;2.40;;;;;;;14.53;35.94;98130.53;4987565;28;20022;-85
2022/04/20 08:34:07;;;;;;;6.18;2.67;;;;;;;14.12;36.99;98134.00;4986712;28;20337;-85
2022/04/20 08:36:33;;;;;;;4.97;2.58;;;;;;;13.92;37.09;98110.16;4986371;28;20226;-85
2022/04/20 08:38:59;;;;;;;5.57;2.17;;;;;;;13.60;37.87;98123.81;4986600;28;20023;-85
2022/04/20 08:41:25;;;;;;;3.53;2.00;;;;;;;13.96;37.26;98122.34;4987326;28;20053;-85
2022/04/20 08:43:52;;;;;;;5.68;2.33;;;;;;;14.34;36.77;98113.69;4986241;28;20322;-85
2022/04/20 08:46:18;;;;;;;8.98;2.65;;;;;;;14.51;36.63;98121.78;4986174;28;20026;-85
2022/04/20 08:48:44;;;;;;;3.97;2.15;;;;;;;15.28;36.24;98126.25;4986136;28;20207;-85
2022/04/20 08:51:10;;;;;;;4.55;2.95;;;;;;;15.42;34.74;98140.63;4986072;28;20026;-85
2022/04/20 08:53:37;;;;;;;4.03;2.42;;;;;;;15.87;34.69;98133.16;4986054;28;20090;-85
2022/04/20 08:58:49;;;;;;;6.63;2.85;;;;;;;15.46;35.53;98131.59;4987131;28;20026;-85
2022/04/20 09:01:17;;;;;;;6.97;2.78;;;;;;;15.79;35.49;98129.97;4986961;28;20077;-86
2022/04/20 09:03:46;;;;;;;11.02;2.60;;;;;;;16.30;34.90;98147.84;4985908;28;20093;-86
2022/04/20 09:06:15;;;;;;;6.65;2.40;;;;;;;15.47;34.90;98133.31;4986998;28;20023;-86
2022/04/20 09:08:41;;;;;;;4.35;2.30;;;;;;;15.93;34.46;98137.28;4985726;28;20026;-86
2022/04/20 09:11:07;;;;;;;4.10;2.25;;;;;;;16.18;34.05;98125.41;4985721;28;20023;-86
2022/04/20 09:13:41;;;;;;;5.93;2.58;;;;;;;15.51;34.07;98132.25;4985689;28;20062;-86
2022/04/20 09:16:09;;;;;;;6.93;3.13;;;;;;;14.89;34.85;98115.66;4986730;28;20064;-86
2022/04/20 09:18:35;;;;;;;5.10;2.60;;;;;;;15.17;35.38;98118.78;4985586;28;20026;-86
2022/04/20 09:21:11;;;;;;;6.43;2.55;;;;;;;15.62;34.69;98121.97;4985424;28;20046;-86
2022/04/20 09:23:38;;;;;;;4.30;2.13;;;;;;;15.95;34.66;98120.34;4985385;28;20022;-86
2022/04/20 09:26:15;;;;;;;6.10;2.47;;;;;;;16.42;33.53;98129.47;5001097;28;20279;-86
2022/04/20 09:28:44;;;;;;;5.38;2.08;;;;;;;15.78;34.21;98146.84;4985417;28;20314;-86
2022/04/20 09:31:11;;;;;;;6.90;2.97;;;;;;;15.51;34.02;98108.38;5001589;28;20097;-86
2022/04/20 09:33:55;;;;;;;5.03;2.78;;;;;;;16.06;32.58;98107.44;4985272;28;20219;-86
2022/04/20 09:36:50;;;;;;;4.47;2.20;;;;;;;16.06;33.88;98102.13;4985255;28;20029;-86
2022/04/20 09:39:16;;;;;;;4.82;2.90;;;;;;;16.12;34.24;98123.06;4980974;28;20222;-86
2022/04/20 09:42:02;;;;;;;6.07;2.92;;;;;;;15.94;33.84;98113.31;4985137;28;20030;-86
2022/04/20 09:44:32;;;;;;;4.57;2.88;;;;;;;16.16;33.78;98113.13;4986266;28;20023;-86
2022/04/20 09:49:56;;;;;;;7.32;3.10;;;;;;;16.73;33.48;98108.41;4986149;28;20078;-86
2022/04/20 09:52:35;;;;;;;7.53;3.35;;;;;;;15.87;34.54;98090.69;4986089;28;20023;-86
2022/04/20 09:55:00;;;;;;;4.68;2.78;;;;;;;16.23;35.00;98099.47;4984906;28;20046;-86
2022/04/20 09:57:25;;;;;;;9.23;3.67;;;;;;;17.00;34.62;98093.66;4984861;28;20318;-86
2022/04/20 09:59:55;;;;;;;7.25;2.90;;;;;;;16.54;34.42;98094.34;4984746;28;20025;-86
2022/04/20 10:02:20;;;;;;;4.32;2.78;;;;;;;16.80;34.56;98107.13;4984819;28;20018;-86
2022/04/20 10:04:47;;;;;;;10.38;3.97;;;;;;;16.55;34.02;98085.44;4984831;28;20097;-86
2022/04/20 10:07:13;;;;;;;6.70;3.17;;;;;;;16.64;35.62;98094.72;5000938;28;20022;-86
2022/04/20 10:09:39;;;;;;;6.82;3.63;;;;;;;17.22;35.04;98099.53;4984661;28;20019;-86
2022/04/20 10:12:06;;;;;;;9.52;3.03;;;;;;;16.97;33.38;98093.84;4984617;28;20018;-86
2022/04/20 10:17:23;;;;;;;6.07;2.38;;;;;;;16.20;33.88;98082.84;4985726;28;20089;-86
2022/04/20 10:19:49;;;;;;;5.80;2.78;;;;;;;16.25;33.62;98086.97;4984436;28;20218;-86
2022/04/20 10:22:18;;;;;;;4.47;2.75;;;;;;;16.25;33.68;98076.34;4984412;28;20019;-86
2022/04/20 10:24:46;;;;;;;7.00;2.38;;;;;;;16.18;33.87;98090.03;4985384;28;20085;-86
2022/04/20 10:27:47;;;;;;;5.28;2.58;;;;;;;16.47;33.43;98077.03;4985477;28;20023;-86
2022/04/20 10:30:23;;;;;;;4.40;2.55;;;;;;;16.48;34.03;98097.31;4967547;28;20018;-86
2022/04/20 10:32:59;;;;;;;5.97;3.22;;;;;;;16.33;34.93;98092.75;4985413;28;20035;-86
2022/04/20 10:35:25;;;;;;;3.80;2.30;;;;;;;16.62;34.36;98081.56;4985364;28;20217;-86
2022/04/20 10:38:11;;;;;;;6.00;2.35;;;;;;;16.09;34.87;98066.59;4984665;28;20022;-86
2022/04/20 10:41:12;;;;;;;5.95;3.25;;;;;;;16.20;35.23;98056.28;5000377;28;20070;-86
2022/04/20 10:43:41;;;;;;;6.35;3.05;;;;;;;15.52;35.49;98072.09;4985317;28;20046;-86
2022/04/20 10:46:17;;;;;;;7.60;2.88;;;;;;;15.64;35.82;98067.06;4984105;28;20313;-86
2022/04/20 10:49:07;;;;;;;6.45;2.47;;;;;;;15.80;35.64;98054.78;4984060;28;20046;-86
2022/04/20 10:51:42;;;;;;;8.18;2.65;;;;;;;16.18;35.77;98072.31;4984047;28;20058;-86
2022/04/20 10:54:17;;;;;;;5.40;2.90;;;;;;;16.41;33.89;98082.59;4984011;28;20361;-86
2022/04/20 10:57:01;;;;;;;10.95;3.53;;;;;;;16.05;35.56;98057.94;4984023;28;20033;-86
2022/04/20 10:59:27;;;;;;;7.78;2.90;;;;;;;16.34;34.51;98057.31;4983978;28;20070;-86
2022/04/20 11:01:58;;;;;;;6.28;3.05;;;;;;;15.85;35.26;98046.59;4983858;28;20091;-86
2022/04/20 11:04:46;;;;;;;8.88;2.80;;;;;;;16.10;34.97;98066.50;4983904;28;20033;-86
2022/04/20 11:07:15;;;;;;;5.78;2.58;;;;;;;16.16;34.34;98054.72;4983929;28;20030;-86
2022/04/20 11:09:48;;;;;;;6.90;2.70;;;;;;;16.52;34.15;98053.72;5000066;28;20069;-86
2022/04/20 11:21:03;;;;;;;10.02;2.67;;;;;;;16.56;32.87;98049.97;4984840;28;20058;-86
2022/04/20 11:23:59;;;;;;;4.72;2.42;;;;;;;16.37;33.02;98048.31;4984808;28;20022;-86
2022/04/20 11:26:41;;;;;;;10.18;2.72;;;;;;;16.19;33.57;98047.47;4983594;28;20331;-86
2022/04/20 11:29:09;;;;;;;5.63;3.22;;;;;;;15.47;33.81;98045.78;4983742;28;20026;-86
2022/04/20 11:31:37;;;;;;;6.97;3.10;;;;;;;15.66;34.53;98057.22;4983697;28;20030;-86
2022/04/20 11:34:03;;;;;;;5.18;2.75;;;;;;;15.46;34.01;98033.47;4983700;28;20066;-86
2022/04/20 11:36:28;;;;;;;10.55;2.65;;;;;;;15.33;34.30;98044.69;4983658;28;20018;-86
2022/04/20 11:38:54;;;;;;;11.02;2.53;;;;;;;15.41;34.38;98054.03;4983636;28;20348;-86
2022/04/20 11:41:19;;;;;;;5.13;2.72;;;;;;;15.29;33.99;98038.69;4983523;28;20030;-86
2022/04/20 11:43:49;;;;;;;4.35;2.17;;;;;;;15.19;35.16;98034.75;4999766;28;20381;-86
2022/04/20 11:46:15;;;;;;;8.55;2.17;;;;;;;15.23;34.99;98044.28;4983542;28;20023;-86
2022/04/20 11:49:10;;;;;;;8.10;2.38;;;;;;;15.14;35.18;98034.09;4983511;28;20022;-86
2022/04/20 11:51:37;;;;;;;8.27;2.42;;;;;;;14.83;35.93;98028.50;4987878;28;20097;-86
2022/04/20 11:54:03;;;;;;;9.07;2.95;;;;;;;14.77;35.19;98028.78;4988313;28;20077;-86
2022/04/20 11:56:33;;;;;;;5.20;2.50;;;;;;;14.36;35.50;98021.81;4987121;28;20314;-86
2022/04/20 11:58:59;;;;;;;5.00;2.70;;;;;;;14.42;35.71;98018.91;4988192;28;20042;-86
2022/04/20 12:01:28;;;;;;;4.68;2.58;;;;;;;14.47;36.35;98024.88;4988128;28;20065;-86
2022/04/20 12:03:55;;;;;;;6.13;2.60;;;;;;;14.57;37.48;98023.53;4987007;28;20276;-86
2022/04/20 12:06:25;;;;;;;4.25;2.00;;;;;;;14.26;35.11;98031.09;5003149;28;20019;-86
2022/04/20 12:08:53;;;;;;;5.35;2.75;;;;;;;14.35;35.25;98018.31;4986868;28;20341;-86
2022/04/20 12:11:19;;;;;;;4.65;2.38;;;;;;;14.36;35.43;98021.81;4986849;28;20050;-86